TimeCDT,TemperatureF,Dew PointF,Humidity,Sea Level PressureIn,VisibilityMPH,Wind Direction,Wind SpeedMPH,Gust SpeedMPH,PrecipitationIn,Events,Conditions,WindDirDegrees,DateUTC
12:56 AM,48.0,39.9,74,29.93,10.0,Calm,Calm,-,N/A,,Clear,0,2012-10-01 05:56:00
1:56 AM,46.9,37.9,71,29.93,10.0,Calm,Calm,-,N/A,,Clear,0,2012-10-01 06:56:00
2:56 AM,62.1,46.0,56,29.92,10.0,North,12.7,-,N/A,,Clear,350,2012-10-01 07:56:00
3:56 AM,62.6,48.2,59,29.94,10.0,North,11.5,-,N/A,,Clear,360,2012-10-01 08:56:00
4:56 AM,64.0,48.9,58,29.93,10.0,North,15.0,20.7,N/A,,Clear,360,2012-10-01 09:56:00
5:56 AM,59.0,52.0,78,29.95,10.0,North,18.4,-,0.00,,Overcast,350,2012-10-01 10:56:00
6:56 AM,59.0,48.9,69,29.98,10.0,North,8.1,-,N/A,,Partly Cloudy,360,2012-10-01 11:56:00
7:56 AM,57.9,48.9,72,30.01,10.0,North,10.4,-,N/A,,Clear,350,2012-10-01 12:56:00
8:56 AM,57.9,45.0,62,30.03,10.0,NNW,17.3,21.9,N/A,,Mostly Cloudy,340,2012-10-01 13:56:00
9:56 AM,59.0,44.1,58,30.06,10.0,North,18.4,25.3,N/A,,Mostly Cloudy,360,2012-10-01 14:56:00
10:56 AM,64.0,43.0,46,30.07,10.0,North,16.1,-,N/A,,Scattered Clouds,360,2012-10-01 15:56:00
11:56 AM,66.9,42.1,40,30.07,10.0,North,17.3,-,N/A,,Clear,10,2012-10-01 16:56:00
12:56 PM,68.0,41.0,37,30.06,10.0,North,20.7,28.8,N/A,,Partly Cloudy,360,2012-10-01 17:56:00
1:56 PM,70.0,39.9,33,30.03,10.0,NNW,20.7,29.9,N/A,,Partly Cloudy,340,2012-10-01 18:56:00
2:56 PM,69.1,37.9,32,30.01,10.0,North,15.0,25.3,N/A,,Partly Cloudy,350,2012-10-01 19:56:00
3:56 PM,69.8,37.4,31,30.01,10.0,North,19.6,24.2,N/A,,Partly Cloudy,350,2012-10-01 20:56:00
4:56 PM,69.1,37.0,31,30.00,10.0,North,16.1,26.5,N/A,,Partly Cloudy,350,2012-10-01 21:56:00
5:56 PM,66.9,35.1,31,30.01,10.0,North,18.4,24.2,N/A,,Clear,350,2012-10-01 22:56:00
6:56 PM,63.0,32.0,31,30.02,10.0,NNW,12.7,-,N/A,,Clear,340,2012-10-01 23:56:00
7:56 PM,57.0,30.9,37,30.03,10.0,NNW,9.2,-,N/A,,Clear,330,2012-10-02 00:56:00
8:56 PM,50.0,32.0,50,30.04,10.0,NNW,8.1,-,N/A,,Clear,340,2012-10-02 01:56:00
9:56 PM,50.0,30.9,48,30.05,10.0,Calm,Calm,-,N/A,,Clear,0,2012-10-02 02:56:00
10:56 PM,48.0,32.0,54,30.04,10.0,NW,3.5,-,N/A,,Clear,320,2012-10-02 03:56:00
11:56 PM,46.9,32.0,56,30.04,10.0,NW,3.5,-,N/A,,Clear,320,2012-10-02 04:56:00